Terminal Aerodrome Forecast
Issued by NWS

Home | Current Version | Previous Version | Text Only | Print | Product List | Glossary On
Versions: 1 2 3 4 5 6 7 8 9 10 11 12 13 14 15 16 17 18 19 20 21 22 23 24 25 26 27 28 29 30 31 32 33 34 35 36
000
FTUS43 KOAX 252334
TAFSNY
TAF
KSNY 252334Z 2600/2624 35010G20KT P6SM VCSH BKN060
      TEMPO 2600/2602 5SM -SHRA BKN035
     FM260200 31006KT P6SM BKN080
     FM260600 31005KT 1SM BR OVC015
     FM261500 28008KT P6SM BKN070
     FM261900 18010G20KT P6SM VCTS BKN070CB=

USA.gov is the U.S. government's official web portal to all federal, state and local government web resources and services.